createdAt,value
2022-09-29T00:01:06.347Z,6.43
2022-09-29T00:03:33.349Z,5.90
2022-09-29T00:06:00.157Z,7.70
2022-09-29T00:08:30.448Z,7.60
2022-09-29T00:10:57.513Z,6.53
2022-09-29T00:13:24.401Z,7.37
2022-09-29T00:16:03.166Z,6.57
2022-09-29T00:18:32.409Z,7.00
2022-09-29T00:21:04.071Z,6.10
2022-09-29T00:23:32.884Z,6.30
2022-09-29T00:26:11.023Z,6.03
2022-09-29T00:28:41.162Z,5.40
2022-09-29T00:31:11.272Z,6.57
2022-09-29T00:33:39.508Z,5.60
2022-09-29T00:36:14.319Z,7.90
2022-09-29T00:38:43.758Z,5.60
2022-09-29T00:41:24.353Z,5.60
2022-09-29T00:43:53.133Z,5.97
2022-09-29T00:46:26.791Z,6.33
2022-09-29T00:49:17.114Z,6.87
2022-09-29T00:51:55.041Z,7.13
2022-09-29T00:54:28.183Z,6.10
2022-09-29T00:56:56.962Z,5.50
2022-09-29T00:59:52.685Z,6.30
2022-09-29T01:02:22.054Z,5.37
2022-09-29T01:04:53.450Z,5.87
2022-09-29T01:07:23.665Z,5.33
2022-09-29T01:09:54.115Z,6.00
2022-09-29T01:12:22.706Z,5.43
2022-09-29T01:14:50.895Z,5.30
2022-09-29T01:17:17.918Z,5.23
2022-09-29T01:20:15.191Z,4.83
2022-09-29T01:23:09.821Z,4.97
2022-09-29T01:26:27.654Z,5.30
2022-09-29T01:29:38.044Z,4.77
2022-09-29T01:33:05.251Z,4.80
2022-09-29T01:36:16.214Z,5.67
2022-09-29T01:38:51.971Z,6.17
2022-09-29T01:42:10.093Z,5.63
2022-09-29T01:44:54.377Z,4.70
2022-09-29T01:47:34.972Z,4.50
2022-09-29T01:50:13.377Z,4.90
2022-09-29T01:52:47.811Z,4.60
2022-09-29T01:55:20.917Z,5.33
2022-09-29T01:57:57.657Z,5.27
2022-09-29T02:00:31.482Z,5.23
2022-09-29T02:03:25.996Z,5.17
2022-09-29T02:06:01.123Z,4.93
2022-09-29T02:08:45.664Z,5.87
2022-09-29T02:11:14.435Z,5.77
2022-09-29T02:13:50.281Z,5.90
2022-09-29T02:16:21.967Z,5.27
2022-09-29T02:19:00.427Z,5.10
2022-09-29T02:21:28.229Z,5.53
2022-09-29T02:23:56.359Z,5.33
2022-09-29T02:26:28.422Z,4.77
2022-09-29T02:28:55.779Z,5.10
2022-09-29T02:31:23.631Z,4.73
2022-09-29T02:33:50.443Z,5.97
2022-09-29T02:36:59.692Z,6.07
2022-09-29T02:39:59.204Z,4.97
2022-09-29T02:42:48.518Z,4.70
2022-09-29T02:45:20.931Z,5.40
2022-09-29T02:47:59.338Z,4.93
2022-09-29T02:50:57.968Z,4.90
2022-09-29T02:54:01.763Z,5.03
2022-09-29T02:56:56.219Z,5.30
2022-09-29T03:00:13.021Z,4.83
2022-09-29T03:02:42.725Z,5.03
2022-09-29T03:05:22.546Z,4.90
2022-09-29T03:07:49.371Z,5.37
2022-09-29T03:10:17.928Z,5.27
2022-09-29T03:12:44.903Z,4.90
2022-09-29T03:15:14.250Z,4.30
2022-09-29T03:17:41.473Z,5.47
2022-09-29T03:20:09.189Z,4.13
2022-09-29T03:22:35.954Z,4.30
2022-09-29T03:25:06.154Z,4.50
2022-09-29T03:27:34.196Z,4.40
2022-09-29T03:30:00.995Z,4.73
2022-09-29T03:32:27.786Z,4.50
2022-09-29T03:34:54.577Z,4.03
2022-09-29T03:37:21.455Z,3.80
2022-09-29T03:39:48.271Z,4.13
2022-09-29T03:42:16.000Z,4.17
2022-09-29T03:44:42.749Z,4.57
2022-09-29T03:47:09.748Z,4.30
2022-09-29T03:49:36.538Z,4.07
2022-09-29T03:52:03.362Z,4.23
2022-09-29T03:54:30.244Z,3.83
2022-09-29T03:56:57.021Z,3.90
2022-09-29T03:59:23.759Z,3.90
2022-09-29T04:01:50.586Z,3.50
2022-09-29T04:04:17.388Z,3.53
2022-09-29T04:06:44.271Z,4.13
2022-09-29T04:09:11.269Z,3.47
2022-09-29T04:11:38.007Z,3.60
2022-09-29T04:14:07.975Z,4.30
2022-09-29T04:16:34.837Z,3.53
2022-09-29T04:19:01.695Z,3.63
2022-09-29T04:21:28.435Z,3.60
2022-09-29T04:23:55.202Z,3.80
2022-09-29T04:26:21.976Z,3.20
2022-09-29T04:28:49.102Z,3.93
2022-09-29T04:31:15.964Z,3.70
2022-09-29T04:33:42.807Z,3.23
2022-09-29T04:36:09.931Z,3.17
2022-09-29T04:38:36.721Z,3.43
2022-09-29T04:41:04.285Z,3.67
2022-09-29T04:43:31.160Z,3.20
2022-09-29T04:46:06.811Z,4.13
2022-09-29T04:48:36.162Z,4.33
2022-09-29T04:51:04.974Z,3.17
2022-09-29T04:53:32.074Z,3.50
2022-09-29T04:55:58.943Z,3.67
2022-09-29T04:58:25.773Z,3.73
2022-09-29T05:00:52.605Z,4.20
2022-09-29T05:03:19.498Z,5.00
2022-09-29T05:05:46.235Z,4.50
2022-09-29T05:08:13.048Z,4.30
2022-09-29T05:10:39.816Z,4.30
2022-09-29T05:13:06.568Z,4.20
2022-09-29T05:15:33.367Z,5.00
2022-09-29T05:18:03.704Z,4.40
2022-09-29T05:20:36.800Z,4.33
2022-09-29T05:23:10.227Z,3.20
2022-09-29T05:25:38.302Z,3.63
2022-09-29T05:28:05.218Z,4.43
2022-09-29T05:30:32.255Z,3.93
2022-09-29T05:32:59.321Z,4.20
2022-09-29T05:35:26.187Z,5.03
2022-09-29T05:37:53.292Z,3.63
2022-09-29T05:40:23.978Z,4.00
2022-09-29T05:42:52.102Z,4.10
2022-09-29T05:45:19.294Z,4.00
2022-09-29T05:47:46.339Z,4.83
2022-09-29T05:50:13.583Z,5.13
2022-09-29T05:52:40.840Z,5.30
2022-09-29T05:55:11.592Z,4.63
2022-09-29T05:57:38.486Z,4.60
2022-09-29T06:00:08.632Z,4.43
2022-09-29T06:02:35.449Z,4.70
2022-09-29T06:05:02.264Z,4.90
2022-09-29T06:07:29.003Z,4.37
2022-09-29T06:09:55.731Z,3.73
2022-09-29T06:12:22.526Z,4.73
2022-09-29T06:14:49.378Z,5.20
2022-09-29T06:17:16.627Z,5.17
2022-09-29T06:19:44.939Z,5.20
2022-09-29T06:22:11.903Z,4.43
2022-09-29T06:24:38.701Z,4.50
2022-09-29T06:27:05.565Z,4.73
2022-09-29T06:29:32.319Z,5.47
2022-09-29T06:31:59.760Z,4.60
2022-09-29T06:34:26.537Z,5.07
2022-09-29T06:37:12.024Z,4.40
2022-09-29T06:39:38.867Z,4.97
2022-09-29T06:42:05.873Z,6.70
2022-09-29T06:44:32.846Z,5.60
2022-09-29T06:47:00.281Z,6.20
2022-09-29T06:49:27.308Z,6.60
2022-09-29T06:51:54.258Z,6.00
2022-09-29T06:54:24.952Z,7.10
2022-09-29T06:56:54.014Z,6.53
2022-09-29T06:59:21.233Z,7.07
2022-09-29T07:01:50.574Z,7.07
2022-09-29T07:04:20.546Z,7.93
2022-09-29T07:06:48.069Z,7.10
2022-09-29T07:09:17.531Z,7.50
2022-09-29T07:11:48.234Z,7.67
2022-09-29T07:14:16.935Z,9.23
2022-09-29T07:16:44.308Z,8.30
2022-09-29T07:19:11.256Z,6.37
2022-09-29T07:21:38.187Z,9.00
2022-09-29T07:24:05.130Z,6.77
2022-09-29T07:26:32.259Z,7.77
2022-09-29T07:28:59.052Z,7.87
2022-09-29T07:31:25.973Z,10.63
2022-09-29T07:33:53.110Z,9.70
2022-09-29T07:36:21.345Z,9.10
2022-09-29T07:38:50.696Z,13.13
2022-09-29T07:41:20.606Z,9.23
2022-09-29T07:43:47.825Z,8.33
2022-09-29T07:46:14.632Z,7.93
2022-09-29T07:48:41.507Z,7.10
2022-09-29T07:51:12.527Z,7.43
2022-09-29T07:53:40.140Z,7.27
2022-09-29T07:56:18.343Z,9.17
2022-09-29T07:58:46.885Z,7.90
2022-09-29T08:01:15.948Z,7.00
2022-09-29T08:03:48.892Z,7.13
2022-09-29T08:06:15.751Z,7.07
2022-09-29T08:08:53.787Z,6.20
2022-09-29T08:11:31.630Z,5.40
2022-09-29T08:13:59.945Z,5.90
2022-09-29T08:16:27.044Z,6.37
2022-09-29T08:18:53.870Z,7.27
2022-09-29T08:21:20.642Z,6.67
2022-09-29T08:23:47.908Z,7.47
2022-09-29T08:26:35.518Z,8.73
2022-09-29T08:29:08.762Z,9.00
2022-09-29T08:31:40.109Z,9.10
2022-09-29T08:34:07.229Z,9.50
2022-09-29T08:36:34.495Z,10.23
2022-09-29T08:39:01.271Z,10.80
2022-09-29T08:41:53.809Z,10.05
2022-09-29T08:44:41.115Z,10.57
2022-09-29T08:47:41.208Z,10.63
2022-09-29T08:50:47.547Z,10.35
2022-09-29T08:53:28.400Z,10.45
2022-09-29T08:56:13.447Z,10.63
2022-09-29T08:58:40.412Z,9.30
2022-09-29T09:01:19.309Z,8.50
2022-09-29T09:03:56.295Z,9.18
2022-09-29T09:06:38.194Z,8.80
2022-09-29T09:09:47.008Z,8.57
2022-09-29T09:12:22.778Z,8.57
2022-09-29T09:15:18.993Z,9.27
2022-09-29T09:18:04.255Z,10.60
2022-09-29T09:20:39.894Z,9.70
2022-09-29T09:23:31.166Z,8.45
2022-09-29T09:26:02.385Z,9.00
2022-09-29T09:28:54.131Z,8.88
2022-09-29T09:31:36.554Z,8.77
2022-09-29T09:34:41.857Z,8.43
2022-09-29T09:37:26.524Z,8.15
2022-09-29T09:40:05.061Z,8.15
2022-09-29T09:42:42.116Z,8.07
2022-09-29T09:45:33.515Z,7.55
2022-09-29T09:48:44.665Z,7.65
2022-09-29T09:51:38.712Z,6.93
2022-09-29T09:54:36.889Z,7.18
2022-09-29T09:57:40.053Z,6.07
2022-09-29T10:00:13.635Z,6.50
2022-09-29T10:02:50.886Z,6.47
2022-09-29T10:05:24.078Z,6.25
2022-09-29T10:07:51.807Z,6.50
2022-09-29T10:10:26.435Z,7.18
2022-09-29T10:13:08.695Z,6.32
2022-09-29T10:15:59.810Z,6.93
2022-09-29T10:18:37.545Z,6.38
2022-09-29T10:21:04.706Z,5.45
2022-09-29T10:23:36.138Z,5.20
2022-09-29T10:26:15.601Z,4.80
2022-09-29T10:28:47.138Z,4.18
2022-09-29T10:31:29.923Z,3.75
2022-09-29T10:34:15.229Z,4.30
2022-09-29T10:37:00.468Z,4.03
2022-09-29T10:39:43.635Z,3.83
2022-09-29T10:42:31.670Z,3.35
2022-09-29T10:45:12.138Z,3.50
2022-09-29T10:47:38.921Z,3.47
2022-09-29T10:50:25.059Z,3.75
2022-09-29T10:52:55.924Z,3.60
2022-09-29T10:55:28.560Z,3.88
2022-09-29T10:58:00.462Z,4.07
2022-09-29T11:00:34.415Z,3.60
2022-09-29T11:03:28.125Z,3.92
2022-09-29T11:06:04.974Z,3.88
2022-09-29T11:08:32.086Z,2.80
2022-09-29T11:11:47.614Z,2.10
2022-09-29T11:14:26.539Z,1.67
2022-09-29T11:16:56.875Z,2.08
2022-09-29T11:19:24.810Z,2.22
2022-09-29T11:22:05.368Z,2.15
2022-09-29T11:25:06.007Z,1.83
2022-09-29T11:28:12.291Z,2.15
2022-09-29T11:31:31.269Z,3.10
2022-09-29T11:34:21.447Z,2.53
2022-09-29T11:37:45.072Z,2.70
2022-09-29T11:40:17.816Z,2.20
2022-09-29T11:43:03.130Z,2.53
2022-09-29T11:46:05.640Z,2.20
2022-09-29T11:48:56.695Z,2.30
2022-09-29T11:51:44.469Z,2.45
2022-09-29T11:54:44.506Z,2.40
2022-09-29T11:57:26.266Z,2.22
2022-09-29T12:00:09.627Z,2.60
2022-09-29T12:02:45.109Z,2.47
2022-09-29T12:06:00.216Z,2.65
2022-09-29T12:08:56.380Z,2.60
2022-09-29T12:12:28.275Z,2.08
2022-09-29T12:15:21.342Z,2.80
2022-09-29T12:17:57.068Z,3.10
2022-09-29T12:20:41.675Z,2.00
2022-09-29T12:23:14.756Z,2.20
2022-09-29T12:26:18.264Z,2.17
2022-09-29T12:29:09.736Z,1.80
2022-09-29T12:31:46.333Z,1.80
2022-09-29T12:34:42.748Z,2.13
2022-09-29T12:37:21.546Z,2.20
2022-09-29T12:40:03.550Z,2.97
2022-09-29T12:43:24.064Z,2.33
2022-09-29T12:45:56.438Z,2.15
2022-09-29T12:48:45.342Z,2.70
2022-09-29T12:51:35.411Z,2.35
2022-09-29T12:54:23.899Z,2.20
2022-09-29T12:57:10.530Z,1.85
2022-09-29T13:00:00.050Z,2.03
2022-09-29T13:02:44.926Z,3.08
2022-09-29T13:05:34.946Z,2.88
2022-09-29T13:08:45.203Z,2.20
2022-09-29T13:11:39.790Z,1.70
2022-09-29T13:14:30.524Z,2.35
2022-09-29T13:17:21.384Z,2.00
2022-09-29T13:20:27.583Z,1.80
2022-09-29T13:23:31.855Z,2.08
2022-09-29T13:26:35.364Z,2.10
2022-09-29T13:29:12.793Z,1.80
2022-09-29T13:34:36.205Z,1.70
2022-09-29T13:37:19.477Z,2.88
2022-09-29T13:40:09.189Z,3.42
2022-09-29T13:42:47.786Z,4.40
2022-09-29T13:45:20.724Z,2.60
2022-09-29T13:48:02.787Z,2.40
2022-09-29T13:50:47.615Z,1.73
2022-09-29T13:53:36.440Z,2.53
2022-09-29T13:56:03.246Z,2.90
2022-09-29T13:58:41.727Z,3.00
2022-09-29T14:01:12.710Z,2.55
2022-09-29T14:03:45.197Z,2.70
2022-09-29T14:06:41.216Z,2.97
2022-09-29T14:09:22.631Z,3.17
2022-09-29T14:11:55.579Z,2.88
2022-09-29T14:14:38.167Z,2.90
2022-09-29T14:17:11.921Z,2.30
2022-09-29T14:19:59.830Z,2.30
2022-09-29T14:22:35.527Z,2.67
2022-09-29T14:25:08.336Z,2.63
2022-09-29T14:27:57.898Z,2.90
2022-09-29T14:30:36.490Z,3.33
2022-09-29T14:33:28.991Z,4.03
2022-09-29T14:36:06.244Z,3.03
2022-09-29T14:39:21.688Z,2.90
2022-09-29T14:41:47.120Z,2.28
2022-09-29T14:45:12.791Z,2.13
2022-09-29T14:48:15.467Z,2.60
2022-09-29T14:51:28.259Z,2.50
2022-09-29T14:54:25.382Z,2.67
2022-09-29T14:57:34.175Z,2.28
2022-09-29T15:00:21.586Z,2.15
2022-09-29T15:02:59.908Z,2.00
2022-09-29T15:05:37.819Z,2.33
2022-09-29T15:08:31.690Z,2.50
2022-09-29T15:10:58.477Z,2.00
2022-09-29T15:13:31.540Z,1.92
2022-09-29T15:16:36.445Z,2.10
2022-09-29T15:19:30.836Z,2.50
2022-09-29T15:22:30.879Z,2.85
2022-09-29T15:25:32.357Z,2.40
2022-09-29T15:28:01.161Z,1.95
2022-09-29T15:30:30.162Z,1.60
2022-09-29T15:33:24.243Z,2.13
2022-09-29T15:35:57.750Z,1.90
2022-09-29T15:38:24.422Z,1.83
2022-09-29T15:40:58.977Z,2.17
2022-09-29T15:43:30.054Z,1.90
2022-09-29T15:46:12.287Z,2.17
2022-09-29T15:48:39.252Z,1.73
2022-09-29T15:51:17.272Z,2.45
2022-09-29T15:53:46.799Z,1.95
2022-09-29T15:56:13.749Z,1.60
2022-09-29T15:58:45.076Z,1.65
2022-09-29T16:01:18.863Z,1.50
2022-09-29T16:04:01.659Z,1.40
2022-09-29T16:06:38.049Z,1.38
2022-09-29T16:09:18.417Z,1.40
2022-09-29T16:11:45.648Z,1.35
2022-09-29T16:14:28.164Z,1.50
2022-09-29T16:16:56.549Z,1.23
2022-09-29T16:19:32.586Z,1.75
2022-09-29T16:22:04.917Z,1.80
2022-09-29T16:24:51.117Z,1.40
2022-09-29T16:27:43.896Z,1.60
2022-09-29T16:30:39.874Z,1.60
2022-09-29T16:33:20.725Z,1.58
2022-09-29T16:35:53.720Z,1.50
2022-09-29T16:38:26.223Z,1.52
2022-09-29T16:40:56.748Z,1.42
2022-09-29T16:43:34.700Z,1.58
2022-09-29T16:46:05.987Z,1.45
2022-09-29T16:48:42.633Z,1.48
2022-09-29T16:51:40.238Z,1.85
2022-09-29T16:54:16.727Z,1.60
2022-09-29T16:56:45.367Z,2.00
2022-09-29T16:59:18.651Z,2.28
2022-09-29T17:01:48.721Z,1.88
2022-09-29T17:04:15.664Z,2.50
2022-09-29T17:06:48.190Z,2.42
2022-09-29T17:09:25.345Z,5.28
2022-09-29T17:11:52.276Z,6.03
2022-09-29T17:14:19.059Z,7.90
2022-09-29T17:16:46.172Z,7.65
2022-09-29T17:19:13.057Z,6.80
2022-09-29T17:21:39.995Z,5.05
2022-09-29T17:24:06.808Z,3.78
2022-09-29T17:27:03.696Z,4.63
2022-09-29T17:29:31.618Z,4.30
2022-09-29T17:31:58.602Z,4.32
2022-09-29T17:34:29.010Z,5.43
2022-09-29T17:37:01.708Z,4.65
2022-09-29T17:39:28.589Z,5.82
2022-09-29T17:41:55.431Z,7.00
2022-09-29T17:44:22.191Z,7.25
2022-09-29T17:46:50.642Z,6.55
2022-09-29T17:49:19.174Z,5.78
2022-09-29T17:51:45.971Z,5.43
2022-09-29T17:54:12.840Z,4.63
2022-09-29T17:56:43.981Z,4.07
2022-09-29T17:59:11.048Z,3.90
2022-09-29T18:01:38.559Z,3.65
2022-09-29T18:04:08.217Z,3.67
2022-09-29T18:06:37.631Z,4.00
2022-09-29T18:09:17.624Z,4.60
2022-09-29T18:11:45.457Z,4.00
2022-09-29T18:14:12.226Z,3.70
2022-09-29T18:16:39.007Z,3.90
2022-09-29T18:19:16.948Z,3.85
2022-09-29T18:21:44.118Z,3.83
2022-09-29T18:24:10.860Z,6.50
2022-09-29T18:26:38.148Z,7.47
2022-09-29T18:29:16.976Z,9.38
2022-09-29T18:31:43.907Z,8.73
2022-09-29T18:34:17.121Z,10.13
2022-09-29T18:36:47.107Z,7.30
2022-09-29T18:39:14.471Z,6.63
2022-09-29T18:41:41.720Z,6.77
2022-09-29T18:44:18.821Z,8.20
2022-09-29T18:46:45.750Z,10.27
2022-09-29T18:49:14.533Z,13.90
2022-09-29T18:51:41.655Z,30.10
2022-09-29T18:54:08.900Z,31.23
2022-09-29T18:56:35.826Z,25.63
2022-09-29T18:59:05.890Z,17.93
2022-09-29T19:01:32.746Z,19.63
2022-09-29T19:03:59.615Z,14.37
2022-09-29T19:06:26.438Z,10.13
2022-09-29T19:08:53.306Z,7.40
2022-09-29T19:11:25.344Z,8.80
2022-09-29T19:13:55.248Z,7.37
2022-09-29T19:16:24.318Z,7.27
2022-09-29T19:18:51.157Z,8.37
2022-09-29T19:21:18.226Z,8.77
2022-09-29T19:23:48.685Z,8.43
2022-09-29T19:26:22.329Z,9.93
2022-09-29T19:28:49.526Z,10.57
2022-09-29T19:31:20.348Z,12.03
2022-09-29T19:33:48.408Z,10.97
2022-09-29T19:36:20.620Z,14.03
2022-09-29T19:38:48.041Z,13.00
2022-09-29T19:41:21.108Z,9.07
2022-09-29T19:43:48.619Z,8.57
2022-09-29T19:46:17.234Z,10.20
2022-09-29T19:48:44.587Z,19.27
2022-09-29T19:51:34.795Z,23.27
2022-09-29T19:54:11.772Z,21.80
2022-09-29T19:56:44.926Z,22.23
2022-09-29T19:59:14.203Z,21.53
2022-09-29T20:01:44.494Z,17.87
2022-09-29T20:04:15.139Z,18.17
2022-09-29T20:06:43.162Z,14.67
2022-09-29T20:09:11.039Z,15.00
2022-09-29T20:11:40.255Z,15.40
2022-09-29T20:14:11.703Z,11.03
2022-09-29T20:16:41.603Z,8.30
2022-09-29T20:19:11.979Z,9.17
2022-09-29T20:21:40.351Z,9.70
2022-09-29T20:24:07.599Z,11.17
2022-09-29T20:26:34.459Z,11.57
2022-09-29T20:29:02.179Z,10.80
2022-09-29T20:31:31.250Z,11.20
2022-09-29T20:33:58.092Z,11.10
2022-09-29T20:36:25.285Z,12.17
2022-09-29T20:38:52.221Z,12.80
2022-09-29T20:41:19.003Z,11.67
2022-09-29T20:43:52.306Z,10.60
2022-09-29T20:46:19.389Z,9.87
2022-09-29T20:48:46.329Z,10.80
2022-09-29T20:51:17.939Z,10.90
2022-09-29T20:53:52.940Z,10.10
2022-09-29T20:56:20.091Z,10.40
2022-09-29T20:58:50.955Z,11.03
2022-09-29T21:01:24.847Z,11.20
2022-09-29T21:03:58.541Z,10.80
2022-09-29T21:06:30.091Z,11.20
2022-09-29T21:08:58.574Z,11.83
2022-09-29T21:11:25.952Z,10.80
2022-09-29T21:13:56.877Z,11.07
2022-09-29T21:16:25.582Z,10.40
2022-09-29T21:18:55.313Z,11.20
2022-09-29T21:21:22.924Z,11.30
2022-09-29T21:23:50.604Z,12.37
2022-09-29T21:26:22.528Z,11.40
2022-09-29T21:28:56.321Z,12.20
2022-09-29T21:31:27.282Z,12.10
2022-09-29T21:33:57.514Z,12.77
2022-09-29T21:36:27.276Z,12.87
2022-09-29T21:38:54.205Z,13.53
2022-09-29T21:41:32.025Z,11.97
2022-09-29T21:44:04.347Z,11.30
2022-09-29T21:46:34.101Z,11.97
2022-09-29T21:49:04.678Z,12.73
2022-09-29T21:51:37.805Z,14.40
2022-09-29T21:54:06.696Z,16.93
2022-09-29T21:56:40.921Z,21.23
2022-09-29T21:59:10.049Z,17.33
2022-09-29T22:01:39.969Z,16.93
2022-09-29T22:04:08.341Z,13.90
2022-09-29T22:06:37.850Z,14.97
2022-09-29T22:09:07.591Z,15.60
2022-09-29T22:11:42.440Z,14.13
2022-09-29T22:14:13.241Z,12.93
2022-09-29T22:16:40.513Z,13.00
2022-09-29T22:19:24.713Z,15.50
2022-09-29T22:21:53.703Z,15.23
2022-09-29T22:24:21.367Z,16.73
2022-09-29T22:26:48.360Z,15.20
2022-09-29T22:29:15.257Z,12.30
2022-09-29T22:31:42.122Z,10.60
2022-09-29T22:34:14.392Z,10.93
2022-09-29T22:36:41.138Z,13.57
2022-09-29T22:39:08.208Z,14.40
2022-09-29T22:41:36.842Z,14.40
2022-09-29T22:44:04.306Z,12.63
2022-09-29T22:46:33.020Z,12.80
2022-09-29T22:48:59.903Z,13.57
2022-09-29T22:51:28.520Z,13.13
2022-09-29T22:53:55.318Z,13.37
2022-09-29T22:56:33.374Z,13.93
2022-09-29T22:59:03.076Z,13.17
2022-09-29T23:01:30.675Z,14.10
2022-09-29T23:03:58.458Z,13.63
2022-09-29T23:06:25.539Z,13.53
2022-09-29T23:08:55.498Z,13.50
2022-09-29T23:11:22.966Z,12.53
2022-09-29T23:13:49.992Z,10.73
2022-09-29T23:16:17.822Z,10.87
2022-09-29T23:18:47.213Z,11.17
2022-09-29T23:21:19.245Z,10.40
2022-09-29T23:23:51.388Z,10.63
2022-09-29T23:26:18.716Z,10.70
2022-09-29T23:28:45.561Z,10.57
2022-09-29T23:31:12.823Z,9.40
2022-09-29T23:33:39.664Z,10.70
2022-09-29T23:36:13.835Z,10.40
2022-09-29T23:39:01.930Z,10.67
2022-09-29T23:41:30.498Z,10.60
2022-09-29T23:44:01.734Z,10.47
2022-09-29T23:46:31.496Z,11.17
2022-09-29T23:49:09.340Z,10.07
2022-09-29T23:51:46.568Z,10.63
2022-09-29T23:54:18.042Z,11.07
2022-09-29T23:56:46.742Z,9.70
2022-09-29T23:59:14.382Z,9.77
